Everhartville, Pennsylvania
Current Conditions -  °F | °C
As of 12:56 AM on Friday 19 Dec 2014 (Local Time) from KCXY Reporting Station
Overcast Overcast  
Wind Chill: 29°   Ceiling: 2700
Heat Index: 35°   Visibility: 10mi
Dew Point: 24°   Wind: 8mph
Humidity: 64%   Direction: 290°WNW
Pressure: 30.06"   Gusts: NA
Location:  40.4932°N, 77.217°W
Report Text: KCXY 190556Z AUTO 29007KT 10SM OVC027 02/M04 A3006 RMK AO2 SLP185 T00171044 10022 20011 58006
Loading
Personal Weather Stations






























Interactive Weather Map New forecast layout! Learn more

10-Day Weather Forecast

Advertisements
Track Severe Weather on mobile